New England — V7HF3 — position and weather

sailwx.info

Track history (hours):
 
Tides and Currents Weather Stations Pressure Air Temp Water Temp Dewpoint Dewpoint Depression Visibility Wind Speed Wind Dir Waves Ship Positions

New England

Last reported at 2018-Feb-16 22:17 UTC. Time now 2018-Feb-18 04:43 UTC.
Position N 42°43' W 070°09'.

Length 182 m; draft 7.4 m.

Type: Ship. MMSI: 538002220.

Date/timePositionNaut miles runAvg speedWind from/ knotsBaromVisibWave heightAir tempDewpointWater temp
2018-Feb-16 22:17N 42°43' W 070°09'414.5
2018-Feb-16 22:00N 42°41' W 070°14'714.6
2018-Feb-16 21:30N 42°38' W 070°22'714.5
2018-Feb-16 21:00N 42°34' W 070°30'714.5
2018-Feb-16 20:31N 42°30' W 070°38'814.8
2018-Feb-16 19:58N 42°25' W 070°47'10 4.3
2018-Feb-16 17:34N 42°24' W 071°01'0 0.1
2018-Feb-16 17:29N 42°24' W 071°01'0 0.0
2018-Feb-16 17:00N 42°24' W 071°01'0 0.0
2018-Feb-16 16:21N 42°24' W 071°01'0 0.0
2018-Feb-16 15:51N 42°24' W 071°01'0 0.0
2018-Feb-16 15:21N 42°24' W 071°01'0 0.0
2018-Feb-16 14:57N 42°24' W 071°01'0 0.0
2018-Feb-16 14:27N 42°24' W 071°01'0 0.0
2018-Feb-16 13:51N 42°24' W 071°01'0 0.0
2018-Feb-16 13:27N 42°24' W 071°01'0 0.0
2018-Feb-16 12:57N 42°24' W 071°01'0 0.0
2018-Feb-16 11:54N 42°24' W 071°01'0 0.0
2018-Feb-16 11:24N 42°24' W 071°01'0 0.0
2018-Feb-16 10:57N 42°24' W 071°01'0 0.0
2018-Feb-16 10:24N 42°24' W 071°01'0 0.0
2018-Feb-16 10:00N 42°24' W 071°01'0 0.0
2018-Feb-16 09:30N 42°24' W 071°01'0 0.0
2018-Feb-16 08:54N 42°24' W 071°01'0 0.0
2018-Feb-16 08:24N 42°24' W 071°01'0 0.0
2018-Feb-16 07:57N 42°24' W 071°01'0 0.0
2018-Feb-16 07:27N 42°24' W 071°01'0 0.0
2018-Feb-16 07:00N 42°24' W 071°01'0 0.0
2018-Feb-16 06:30N 42°24' W 071°01'0 0.0
2018-Feb-16 05:57N 42°24' W 071°01'0 0.0
2018-Feb-16 05:27N 42°24' W 071°01'0 0.0
2018-Feb-16 04:51N 42°24' W 071°01'0 0.0
2018-Feb-16 04:30N 42°24' W 071°01'0 0.0
2018-Feb-16 04:00N 42°24' W 071°01'0 0.0
2018-Feb-16 03:27N 42°24' W 071°01'0 0.0
2018-Feb-16 02:57N 42°24' W 071°01'0 0.0
2018-Feb-16 02:27N 42°24' W 071°01'0 0.0
2018-Feb-16 01:54N 42°24' W 071°01'0 0.0
2018-Feb-16 01:27N 42°24' W 071°01'0 0.0
2018-Feb-16 00:57N 42°24' W 071°01'0 0.0
2018-Feb-16 00:30N 42°24' W 071°01'0 0.0
2018-Feb-15 23:57N 42°24' W 071°01'0 0.0
2018-Feb-15 23:18N 42°24' W 071°01'0 0.0
2018-Feb-15 22:57N 42°24' W 071°01'0 0.0
2018-Feb-15 22:30N 42°24' W 071°01'0 0.0
2018-Feb-15 22:00N 42°24' W 071°01'0 0.0
2018-Feb-15 21:24N 42°24' W 071°01'0 0.0
2018-Feb-15 20:54N 42°24' W 071°01'0 0.0
2018-Feb-15 20:24N 42°24' W 071°01'0 0.0
2018-Feb-15 19:57N 42°24' W 071°01'0 0.0
2018-Feb-15 19:30N 42°24' W 071°01'0 0.0
2018-Feb-15 19:00N 42°24' W 071°01'0 0.0
2018-Feb-15 18:12N 42°24' W 071°01'0 0.0
2018-Feb-15 18:00N 42°24' W 071°01'0 0.0
2018-Feb-15 17:30N 42°24' W 071°01'0 0.0
2018-Feb-15 17:00N 42°24' W 071°01'0 0.0
2018-Feb-15 16:18N 42°24' W 071°01'0 0.0
2018-Feb-15 16:00N 42°24' W 071°01'0 0.0
2018-Feb-15 15:27N 42°24' W 071°01'0 0.0
2018-Feb-15 14:51N 42°24' W 071°01'0 0.0
2018-Feb-15 14:30N 42°24' W 071°01'0 0.0
2018-Feb-15 13:54N 42°24' W 071°01'0 0.0
2018-Feb-15 13:11N 42°24' W 071°01'0 0.0
2018-Feb-15 13:00N 42°24' W 071°01'1 2.5
2018-Feb-15 12:30N 42°23' W 071°03'3 5.5
2018-Feb-15 12:00N 42°21' W 071°01'2 2.2
2018-Feb-15 11:02N 42°20' W 070°58'0 0.0
2018-Feb-15 10:59N 42°20' W 070°58'0 0.1
2018-Feb-15 10:11N 42°21' W 070°58'0 0.2
2018-Feb-15 09:47N 42°20' W 070°58'0 0.1
2018-Feb-15 09:08N 42°20' W 070°58'0 0.1
2018-Feb-15 08:56N 42°20' W 070°58'0 0.0
2018-Feb-15 08:23N 42°20' W 070°58'0 0.0
2018-Feb-15 07:56N 42°20' W 070°58'0 0.0
2018-Feb-15 07:26N 42°20' W 070°58'0 0.0
2018-Feb-15 06:53N 42°20' W 070°58'0 0.0
2018-Feb-15 05:02N 42°20' W 070°58'0 0.2
2018-Feb-15 04:53N 42°20' W 070°58'0 0.0
2018-Feb-15 04:26N 42°20' W 070°58'0 0.1
2018-Feb-15 03:56N 42°20' W 070°58'0 0.1
2018-Feb-15 03:30N 42°20' W 070°58'0 0.3
2018-Feb-15 03:00N 42°20' W 070°58'0 0.1
2018-Feb-15 02:30N 42°20' W 070°58'0 0.6
2018-Feb-15 01:58N 42°20' W 070°58'3 5.3
2018-Feb-15 01:30N 42°22' W 070°55'510.9
2018-Feb-15 01:01N 42°25' W 070°49'3 5.3
2018-Feb-15 00:30N 42°26' W 070°46'1 2.5
2018-Feb-15 00:00N 42°27' W 070°45'4 7.9
2018-Feb-14 23:30N 42°29' W 070°40'612.5
2018-Feb-14 23:00N 42°33' W 070°33'612.4
2018-Feb-14 22:30N 42°36' W 070°26'612.6
2018-Feb-14 22:00N 42°40' W 070°19'612.4
2018-Feb-14 21:31N 42°43' W 070°12'612.5
2018-Feb-14 21:01N 42°46' W 070°05'713.0
2018-Feb-14 20:30N 42°50' W 069°57'  
2018-Feb-12 12:03N 43°03' W 070°13'113.7
2018-Feb-12 12:00N 43°03' W 070°13'713.4
2018-Feb-12 11:30N 43°02' W 070°23'713.3
2018-Feb-12 11:00N 43°01' W 070°32'712.9
2018-Feb-12 10:30N 43°02' W 070°40'4 0.3
2018-Feb-11 21:03N 43°05' W 070°44'5 6.0
2018-Feb-11 20:11N 43°00' W 070°41'2 8.6
2018-Feb-11 20:00N 42°59' W 070°40'613.1
2018-Feb-11 19:30N 42°53' W 070°37'815.0
2018-Feb-11 19:01N 42°47' W 070°31'714.5
2018-Feb-11 18:31N 42°40' W 070°30'713.7
2018-Feb-11 18:01N 42°33' W 070°34'714.2
2018-Feb-11 17:30N 42°29' W 070°41'714.4
2018-Feb-11 17:01N 42°25' W 070°49'612.6
2018-Feb-11 16:30N 42°21' W 070°56'510.3
2018-Feb-11 16:00N 42°22' W 071°03'2 3.7
2018-Feb-11 15:27N 42°24' W 071°01'0 0.4
2018-Feb-11 14:55N 42°24' W 071°01'0 0.0
2018-Feb-11 14:13N 42°24' W 071°01'0 0.0
2018-Feb-11 13:55N 42°24' W 071°01'0 0.0
2018-Feb-11 13:22N 42°24' W 071°01'0 0.0
2018-Feb-11 12:28N 42°24' W 071°01'0 0.0
2018-Feb-11 11:58N 42°24' W 071°01'0 0.0
2018-Feb-11 11:28N 42°24' W 071°01'0 0.0
2018-Feb-11 10:52N 42°24' W 071°01'0 0.0
2018-Feb-11 10:28N 42°24' W 071°01'0 0.0
2018-Feb-11 09:07N 42°24' W 071°01'0 0.0
2018-Feb-11 08:55N 42°24' W 071°01'0 0.0
2018-Feb-11 08:28N 42°24' W 071°01'0 0.0
2018-Feb-11 07:46N 42°24' W 071°01'0 0.0
2018-Feb-11 07:16N 42°24' W 071°01'0 0.0
2018-Feb-11 06:46N 42°24' W 071°01'0 0.0
2018-Feb-11 06:19N 42°24' W 071°01'0 0.0
2018-Feb-11 05:55N 42°24' W 071°01'0 0.0
2018-Feb-11 05:25N 42°24' W 071°01'0 0.0
2018-Feb-11 04:52N 42°24' W 071°01'0 0.0
2018-Feb-11 04:28N 42°24' W 071°01'0 0.0
2018-Feb-11 02:37N 42°24' W 071°01'0 0.0
2018-Feb-11 02:19N 42°24' W 071°01'0 0.0
2018-Feb-11 01:01N 42°24' W 071°01'0 0.0
2018-Feb-11 00:49N 42°24' W 071°01'0 0.0
2018-Feb-11 00:19N 42°24' W 071°01'0 0.0
2018-Feb-10 22:16N 42°24' W 071°01'0 0.0
2018-Feb-10 21:43N 42°24' W 071°01'0 0.0
2018-Feb-10 21:28N 42°24' W 071°01'0 0.0
2018-Feb-10 20:58N 42°24' W 071°01'0 0.0
2018-Feb-10 20:28N 42°24' W 071°01'0 0.0
2018-Feb-10 19:58N 42°24' W 071°01'0 0.0
2018-Feb-10 19:28N 42°24' W 071°01'0 0.0
2018-Feb-10 18:58N 42°24' W 071°01'0 0.0
2018-Feb-10 18:28N 42°24' W 071°01'0 0.0
2018-Feb-10 17:58N 42°24' W 071°01'0 0.0
2018-Feb-10 17:22N 42°24' W 071°01'0 0.0
2018-Feb-10 16:49N 42°24' W 071°01'0 0.0
2018-Feb-10 16:19N 42°24' W 071°01'0 0.0
2018-Feb-10 15:58N 42°24' W 071°01'0 0.0
2018-Feb-10 15:13N 42°24' W 071°01'0 0.0
2018-Feb-10 14:52N 42°24' W 071°01'0 0.0
2018-Feb-10 14:28N 42°24' W 071°01'0 0.0
2018-Feb-10 13:58N 42°24' W 071°01'0 0.0
2018-Feb-10 13:26N 42°24' W 071°01'0 1.0
2018-Feb-10 13:00N 42°23' W 071°01'1 2.7
2018-Feb-10 12:30N 42°23' W 071°03'2 3.9
2018-Feb-10 11:59N 42°21' W 071°02'3 5.5
2018-Feb-10 11:31N 42°20' W 070°58'0 0.1
2018-Feb-10 08:43N 42°21' W 070°58'0 0.0
2018-Feb-10 08:27N 42°21' W 070°58'0 0.0
2018-Feb-10 07:58N 42°21' W 070°58'0 0.1
2018-Feb-10 05:07N 42°20' W 070°58'0 0.0
2018-Feb-10 04:56N 42°20' W 070°58'0 0.0
2018-Feb-10 04:14N 42°20' W 070°58'0 0.0
2018-Feb-10 03:56N 42°20' W 070°58'0 0.0
2018-Feb-10 01:53N 42°20' W 070°58'0 0.0
2018-Feb-10 01:29N 42°20' W 070°58'0 0.0
2018-Feb-10 00:54N 42°20' W 070°58'0 0.0
2018-Feb-10 00:30N 42°20' W 070°58'  
Track history (hours):
 
Tides and Currents Weather Stations Pressure Air Temp Water Temp Dewpoint Dewpoint Depression Visibility Wind Speed Wind Dir Waves Ship Positions

New England

Last reported at 2018-Feb-16 22:17 UTC. Time now 2018-Feb-18 04:43 UTC.
Position N 42°43' W 070°09'.

Length 182 m; draft 7.4 m.

Type: Ship. MMSI: 538002220.

Date/timePositionNaut miles runAvg speedWind from/ knotsBaromVisibWave heightAir tempDewpointWater temp
2018-Feb-16 22:17N 42°43' W 070°09'414.5
2018-Feb-16 22:00N 42°41' W 070°14'714.6
2018-Feb-16 21:30N 42°38' W 070°22'714.5
2018-Feb-16 21:00N 42°34' W 070°30'714.5
2018-Feb-16 20:31N 42°30' W 070°38'814.8
2018-Feb-16 19:58N 42°25' W 070°47'10 4.3
2018-Feb-16 17:34N 42°24' W 071°01'0 0.1
2018-Feb-16 17:29N 42°24' W 071°01'0 0.0
2018-Feb-16 17:00N 42°24' W 071°01'0 0.0
2018-Feb-16 16:21N 42°24' W 071°01'0 0.0
2018-Feb-16 15:51N 42°24' W 071°01'0 0.0
2018-Feb-16 15:21N 42°24' W 071°01'0 0.0
2018-Feb-16 14:57N 42°24' W 071°01'0 0.0
2018-Feb-16 14:27N 42°24' W 071°01'0 0.0
2018-Feb-16 13:51N 42°24' W 071°01'0 0.0
2018-Feb-16 13:27N 42°24' W 071°01'0 0.0
2018-Feb-16 12:57N 42°24' W 071°01'0 0.0
2018-Feb-16 11:54N 42°24' W 071°01'0 0.0
2018-Feb-16 11:24N 42°24' W 071°01'0 0.0
2018-Feb-16 10:57N 42°24' W 071°01'0 0.0
2018-Feb-16 10:24N 42°24' W 071°01'0 0.0
2018-Feb-16 10:00N 42°24' W 071°01'0 0.0
2018-Feb-16 09:30N 42°24' W 071°01'0 0.0
2018-Feb-16 08:54N 42°24' W 071°01'0 0.0
2018-Feb-16 08:24N 42°24' W 071°01'0 0.0
2018-Feb-16 07:57N 42°24' W 071°01'0 0.0
2018-Feb-16 07:27N 42°24' W 071°01'0 0.0
2018-Feb-16 07:00N 42°24' W 071°01'0 0.0
2018-Feb-16 06:30N 42°24' W 071°01'0 0.0
2018-Feb-16 05:57N 42°24' W 071°01'0 0.0
2018-Feb-16 05:27N 42°24' W 071°01'0 0.0
2018-Feb-16 04:51N 42°24' W 071°01'0 0.0
2018-Feb-16 04:30N 42°24' W 071°01'0 0.0
2018-Feb-16 04:00N 42°24' W 071°01'0 0.0
2018-Feb-16 03:27N 42°24' W 071°01'0 0.0
2018-Feb-16 02:57N 42°24' W 071°01'0 0.0
2018-Feb-16 02:27N 42°24' W 071°01'0 0.0
2018-Feb-16 01:54N 42°24' W 071°01'0 0.0
2018-Feb-16 01:27N 42°24' W 071°01'0 0.0
2018-Feb-16 00:57N 42°24' W 071°01'0 0.0
2018-Feb-16 00:30N 42°24' W 071°01'0 0.0
2018-Feb-15 23:57N 42°24' W 071°01'0 0.0
2018-Feb-15 23:18N 42°24' W 071°01'0 0.0
2018-Feb-15 22:57N 42°24' W 071°01'0 0.0
2018-Feb-15 22:30N 42°24' W 071°01'0 0.0
2018-Feb-15 22:00N 42°24' W 071°01'0 0.0
2018-Feb-15 21:24N 42°24' W 071°01'0 0.0
2018-Feb-15 20:54N 42°24' W 071°01'0 0.0
2018-Feb-15 20:24N 42°24' W 071°01'0 0.0
2018-Feb-15 19:57N 42°24' W 071°01'0 0.0
2018-Feb-15 19:30N 42°24' W 071°01'0 0.0
2018-Feb-15 19:00N 42°24' W 071°01'0 0.0
2018-Feb-15 18:12N 42°24' W 071°01'0 0.0
2018-Feb-15 18:00N 42°24' W 071°01'0 0.0
2018-Feb-15 17:30N 42°24' W 071°01'0 0.0
2018-Feb-15 17:00N 42°24' W 071°01'0 0.0
2018-Feb-15 16:18N 42°24' W 071°01'0 0.0
2018-Feb-15 16:00N 42°24' W 071°01'0 0.0
2018-Feb-15 15:27N 42°24' W 071°01'0 0.0
2018-Feb-15 14:51N 42°24' W 071°01'0 0.0
2018-Feb-15 14:30N 42°24' W 071°01'0 0.0
2018-Feb-15 13:54N 42°24' W 071°01'0 0.0
2018-Feb-15 13:11N 42°24' W 071°01'0 0.0
2018-Feb-15 13:00N 42°24' W 071°01'1 2.5
2018-Feb-15 12:30N 42°23' W 071°03'3 5.5
2018-Feb-15 12:00N 42°21' W 071°01'2 2.2
2018-Feb-15 11:02N 42°20' W 070°58'0 0.0
2018-Feb-15 10:59N 42°20' W 070°58'0 0.1
2018-Feb-15 10:11N 42°21' W 070°58'0 0.2
2018-Feb-15 09:47N 42°20' W 070°58'0 0.1
2018-Feb-15 09:08N 42°20' W 070°58'0 0.1
2018-Feb-15 08:56N 42°20' W 070°58'0 0.0
2018-Feb-15 08:23N 42°20' W 070°58'0 0.0
2018-Feb-15 07:56N 42°20' W 070°58'0 0.0
2018-Feb-15 07:26N 42°20' W 070°58'0 0.0
2018-Feb-15 06:53N 42°20' W 070°58'0 0.0
2018-Feb-15 05:02N 42°20' W 070°58'0 0.2
2018-Feb-15 04:53N 42°20' W 070°58'0 0.0
2018-Feb-15 04:26N 42°20' W 070°58'0 0.1
2018-Feb-15 03:56N 42°20' W 070°58'0 0.1
2018-Feb-15 03:30N 42°20' W 070°58'0 0.3
2018-Feb-15 03:00N 42°20' W 070°58'0 0.1
2018-Feb-15 02:30N 42°20' W 070°58'0 0.6
2018-Feb-15 01:58N 42°20' W 070°58'3 5.3
2018-Feb-15 01:30N 42°22' W 070°55'510.9
2018-Feb-15 01:01N 42°25' W 070°49'3 5.3
2018-Feb-15 00:30N 42°26' W 070°46'1 2.5
2018-Feb-15 00:00N 42°27' W 070°45'4 7.9
2018-Feb-14 23:30N 42°29' W 070°40'612.5
2018-Feb-14 23:00N 42°33' W 070°33'612.4
2018-Feb-14 22:30N 42°36' W 070°26'612.6
2018-Feb-14 22:00N 42°40' W 070°19'612.4
2018-Feb-14 21:31N 42°43' W 070°12'612.5
2018-Feb-14 21:01N 42°46' W 070°05'713.0
2018-Feb-14 20:30N 42°50' W 069°57'  
2018-Feb-12 12:03N 43°03' W 070°13'113.7
2018-Feb-12 12:00N 43°03' W 070°13'713.4
2018-Feb-12 11:30N 43°02' W 070°23'713.3
2018-Feb-12 11:00N 43°01' W 070°32'712.9
2018-Feb-12 10:30N 43°02' W 070°40'4 0.3
2018-Feb-11 21:03N 43°05' W 070°44'5 6.0
2018-Feb-11 20:11N 43°00' W 070°41'2 8.6
2018-Feb-11 20:00N 42°59' W 070°40'613.1
2018-Feb-11 19:30N 42°53' W 070°37'815.0
2018-Feb-11 19:01N 42°47' W 070°31'714.5
2018-Feb-11 18:31N 42°40' W 070°30'713.7
2018-Feb-11 18:01N 42°33' W 070°34'714.2
2018-Feb-11 17:30N 42°29' W 070°41'714.4
2018-Feb-11 17:01N 42°25' W 070°49'612.6
2018-Feb-11 16:30N 42°21' W 070°56'510.3
2018-Feb-11 16:00N 42°22' W 071°03'2 3.7
2018-Feb-11 15:27N 42°24' W 071°01'0 0.4
2018-Feb-11 14:55N 42°24' W 071°01'0 0.0
2018-Feb-11 14:13N 42°24' W 071°01'0 0.0
2018-Feb-11 13:55N 42°24' W 071°01'0 0.0
2018-Feb-11 13:22N 42°24' W 071°01'0 0.0
2018-Feb-11 12:28N 42°24' W 071°01'0 0.0
2018-Feb-11 11:58N 42°24' W 071°01'0 0.0
2018-Feb-11 11:28N 42°24' W 071°01'0 0.0
2018-Feb-11 10:52N 42°24' W 071°01'0 0.0
2018-Feb-11 10:28N 42°24' W 071°01'0 0.0
2018-Feb-11 09:07N 42°24' W 071°01'0 0.0
2018-Feb-11 08:55N 42°24' W 071°01'0 0.0
2018-Feb-11 08:28N 42°24' W 071°01'0 0.0
2018-Feb-11 07:46N 42°24' W 071°01'0 0.0
2018-Feb-11 07:16N 42°24' W 071°01'0 0.0
2018-Feb-11 06:46N 42°24' W 071°01'0 0.0
2018-Feb-11 06:19N 42°24' W 071°01'0 0.0
2018-Feb-11 05:55N 42°24' W 071°01'0 0.0
2018-Feb-11 05:25N 42°24' W 071°01'0 0.0
2018-Feb-11 04:52N 42°24' W 071°01'0 0.0
2018-Feb-11 04:28N 42°24' W 071°01'0 0.0
2018-Feb-11 02:37N 42°24' W 071°01'0 0.0
2018-Feb-11 02:19N 42°24' W 071°01'0 0.0
2018-Feb-11 01:01N 42°24' W 071°01'0 0.0
2018-Feb-11 00:49N 42°24' W 071°01'0 0.0
2018-Feb-11 00:19N 42°24' W 071°01'0 0.0
2018-Feb-10 22:16N 42°24' W 071°01'0 0.0
2018-Feb-10 21:43N 42°24' W 071°01'0 0.0
2018-Feb-10 21:28N 42°24' W 071°01'0 0.0
2018-Feb-10 20:58N 42°24' W 071°01'0 0.0
2018-Feb-10 20:28N 42°24' W 071°01'0 0.0
2018-Feb-10 19:58N 42°24' W 071°01'0 0.0
2018-Feb-10 19:28N 42°24' W 071°01'0 0.0
2018-Feb-10 18:58N 42°24' W 071°01'0 0.0
2018-Feb-10 18:28N 42°24' W 071°01'0 0.0
2018-Feb-10 17:58N 42°24' W 071°01'0 0.0
2018-Feb-10 17:22N 42°24' W 071°01'0 0.0
2018-Feb-10 16:49N 42°24' W 071°01'0 0.0
2018-Feb-10 16:19N 42°24' W 071°01'0 0.0
2018-Feb-10 15:58N 42°24' W 071°01'0 0.0
2018-Feb-10 15:13N 42°24' W 071°01'0 0.0
2018-Feb-10 14:52N 42°24' W 071°01'0 0.0
2018-Feb-10 14:28N 42°24' W 071°01'0 0.0
2018-Feb-10 13:58N 42°24' W 071°01'0 0.0
2018-Feb-10 13:26N 42°24' W 071°01'0 1.0
2018-Feb-10 13:00N 42°23' W 071°01'1 2.7
2018-Feb-10 12:30N 42°23' W 071°03'2 3.9
2018-Feb-10 11:59N 42°21' W 071°02'3 5.5
2018-Feb-10 11:31N 42°20' W 070°58'0 0.1
2018-Feb-10 08:43N 42°21' W 070°58'0 0.0
2018-Feb-10 08:27N 42°21' W 070°58'0 0.0
2018-Feb-10 07:58N 42°21' W 070°58'0 0.1
2018-Feb-10 05:07N 42°20' W 070°58'0 0.0
2018-Feb-10 04:56N 42°20' W 070°58'0 0.0
2018-Feb-10 04:14N 42°20' W 070°58'0 0.0
2018-Feb-10 03:56N 42°20' W 070°58'0 0.0
2018-Feb-10 01:53N 42°20' W 070°58'0 0.0
2018-Feb-10 01:29N 42°20' W 070°58'0 0.0
2018-Feb-10 00:54N 42°20' W 070°58'0 0.0
2018-Feb-10 00:30N 42°20' W 070°58'  

Dump ship's entire track history